KMSO/MSO METAR and TAF weather

Enter ICAO airport designator
Station Type Date Time Source
KMSO METAR 2022/12/10 00:53 UTC NOAA

KMSO 100053Z 01005KT 10SM CLR M06/M09 A2994 RMK AO2 SLP184 T10611094


Station Type Date Time Source
KMSO Decoded METAR 2022/12/10 00:53 UTC NOAA

MISSOULA INTERNATIONAL AIRPORT , MT, United States (KMSO) 46-55N 114-06W 975M
Dec 09, 2022 - 07:53 PM EST / 2022.12.10 0053 UTC
Wind: from the N (010 degrees) at 6 MPH (5 KT):0
Visibility: 10 mile(s):0
Sky conditions: clear
Temperature: 21.0 F (-6.1 C)
Windchill: 14 F (-10 C):1
Dew Point: 15.1 F (-9.4 C)
Relative Humidity: 77%
Pressure (altimeter): 29.94 in. Hg (1013 hPa)
ob: KMSO 100053Z 01005KT 10SM CLR M06/M09 A2994 RMK AO2 SLP184 T10611094
cycle: 1

Station Type Date Time Source
KMSO TAF 2022/12/09 18:27 UTC NOAA

TAF KMSO 091725Z 0918/1018 20004KT P6SM VCSH OVC050
FM091900 27004KT P6SM BKN050
FM100200 13002KT P6SM BKN150
FM101200 13006KT P6SM OVC050

Example: see airport list